createdAt,value
2022-12-19T20:31:44.614Z,53.74
2022-12-19T20:32:44.380Z,52.82
2022-12-19T20:33:47.666Z,52.01
2022-12-19T20:34:44.289Z,51.37
2022-12-19T20:35:44.186Z,50.63
2022-12-19T20:36:44.001Z,50.67
2022-12-19T20:37:44.025Z,50.25
2022-12-19T20:38:43.910Z,49.87
2022-12-19T20:39:46.581Z,49.39
2022-12-19T20:40:43.819Z,49.49
2022-12-19T20:41:44.437Z,49.89
2022-12-19T20:42:44.140Z,49.59
2022-12-19T20:43:44.291Z,49.18
2022-12-19T20:44:43.442Z,49.19
2022-12-19T20:45:43.465Z,49.07
2022-12-19T20:46:44.003Z,49.31
2022-12-19T20:47:43.152Z,49.34
2022-12-19T20:48:43.071Z,49.05
2022-12-19T20:49:42.853Z,49.24
2022-12-19T20:50:43.704Z,49.37
2022-12-19T20:51:42.678Z,49.53
2022-12-19T20:52:42.580Z,49.61
2022-12-19T20:53:42.468Z,49.65
2022-12-19T20:54:43.189Z,49.28
2022-12-19T21:12:29.991Z,54.69
2022-12-19T21:13:30.520Z,53.34
2022-12-19T21:14:29.940Z,52.81
2022-12-19T21:15:29.724Z,52.13
2022-12-19T21:16:30.009Z,51.91
2022-12-19T21:17:29.413Z,51.88
2022-12-19T21:23:01.911Z,52.84
2022-12-19T21:34:04.688Z,48.07
2022-12-19T22:17:58.479Z,46.76
2022-12-19T22:28:58.049Z,46.98
2022-12-19T22:29:57.656Z,47.05
2022-12-19T22:30:57.559Z,46.94
2022-12-19T22:31:57.670Z,47.06
2022-12-19T22:32:57.459Z,47.19
2022-12-19T22:33:57.361Z,47.13
2022-12-19T22:34:57.266Z,47.15
2022-12-19T22:35:57.692Z,47.02
2022-12-19T22:36:57.198Z,47.11
2022-12-19T22:37:57.185Z,47.23
2022-12-19T22:38:57.121Z,47.07
2022-12-19T22:40:56.906Z,46.99
2022-12-19T22:41:56.824Z,47.13
2022-12-19T22:42:58.657Z,47.09
2022-12-19T22:43:56.842Z,47.18
2022-12-19T22:44:56.748Z,47.25
2022-12-19T22:45:58.309Z,47.28
2022-12-19T22:46:56.652Z,47.17
2022-12-19T22:47:56.558Z,47.18
2022-12-19T22:48:57.277Z,47.17
2022-12-19T22:49:56.451Z,47.22
2022-12-19T22:50:56.365Z,47.27
2022-12-19T22:51:56.764Z,47.30
2022-12-19T22:52:56.272Z,47.26
2022-12-19T22:53:56.186Z,47.33
2022-12-19T22:54:56.284Z,47.32
2022-12-19T22:55:56.081Z,47.44
2022-12-19T22:56:55.974Z,47.30
2022-12-19T22:57:56.289Z,47.24
2022-12-19T22:58:56.294Z,47.38
2022-12-19T22:59:55.791Z,47.33
2022-12-19T23:00:55.798Z,47.35
2022-12-19T23:01:56.029Z,47.33
2022-12-19T23:02:55.777Z,47.58
2022-12-19T23:03:55.971Z,47.38
2022-12-19T23:04:55.820Z,47.41
2022-12-19T23:05:55.447Z,47.45
2022-12-19T23:06:55.330Z,47.50
2022-12-19T23:07:56.265Z,47.56
2022-12-19T23:08:55.247Z,47.52
2022-12-19T23:09:55.155Z,47.40
2022-12-19T23:10:55.263Z,47.50
2022-12-19T23:11:55.275Z,47.42
2022-12-19T23:12:54.979Z,47.49
2022-12-19T23:13:54.862Z,47.41
2022-12-19T23:14:54.764Z,47.45
2022-12-19T23:15:54.770Z,47.45
2022-12-19T23:16:54.832Z,47.51
2022-12-19T23:17:54.615Z,47.56
2022-12-19T23:18:55.234Z,47.45
2022-12-19T23:19:54.392Z,47.61
2022-12-19T23:20:54.835Z,47.40
2022-12-19T23:21:55.328Z,47.47
2022-12-19T23:22:54.204Z,47.57
2022-12-19T23:23:54.114Z,47.58
2022-12-19T23:25:55.766Z,47.56
2022-12-19T23:26:53.953Z,47.47
2022-12-19T23:27:55.817Z,47.54
2022-12-19T23:28:53.859Z,47.58
2022-12-19T23:29:53.738Z,47.77
2022-12-19T23:30:54.287Z,47.69
2022-12-19T23:31:53.689Z,47.78
2022-12-19T23:32:53.562Z,47.65
2022-12-19T23:33:53.811Z,47.73
2022-12-19T23:34:53.774Z,47.88
2022-12-19T23:35:53.410Z,47.80
2022-12-19T23:37:21.838Z,47.90
2022-12-19T23:37:54.207Z,47.85
2022-12-19T23:38:53.184Z,47.92
2022-12-19T23:39:53.095Z,47.95
2022-12-19T23:40:53.010Z,48.01
2022-12-19T23:41:53.331Z,47.89
2022-12-19T23:42:52.933Z,47.89
2022-12-19T23:43:52.852Z,47.78
2022-12-19T23:44:52.611Z,47.79
2022-12-19T23:45:52.787Z,47.99
2022-12-19T23:47:02.320Z,48.04
2022-12-19T23:47:55.217Z,47.80
2022-12-19T23:48:52.364Z,47.90
2022-12-19T23:49:54.187Z,48.05
2022-12-19T23:50:52.256Z,48.05
2022-12-19T23:51:52.148Z,47.96
2022-12-19T23:52:52.173Z,47.91
2022-12-19T23:53:52.782Z,47.93
2022-12-19T23:54:51.972Z,48.05
2022-12-19T23:55:51.895Z,48.06
2022-12-19T23:56:51.894Z,48.09
2022-12-19T23:57:52.213Z,47.82
2022-12-19T23:58:51.716Z,47.89
2022-12-19T23:59:51.601Z,48.08
